createdAt,value
2023-04-18T00:00:13.905Z,3.70
2023-04-18T00:03:17.336Z,3.90
2023-04-18T00:06:19.199Z,3.53
2023-04-18T00:09:20.875Z,3.50
2023-04-18T00:12:22.828Z,3.50
2023-04-18T00:15:24.580Z,3.03
2023-04-18T00:18:27.616Z,3.45
2023-04-18T00:21:29.292Z,3.40
2023-04-18T00:24:30.967Z,3.50
2023-04-18T00:27:32.584Z,2.72
2023-04-18T00:30:34.519Z,3.13
2023-04-18T00:33:37.957Z,2.90
2023-04-18T00:36:39.821Z,3.45
2023-04-18T00:39:41.661Z,3.33
2023-04-18T00:42:43.288Z,3.10
2023-04-18T00:45:44.980Z,3.30
2023-04-18T00:48:49.016Z,2.97
2023-04-18T00:51:51.104Z,3.40
2023-04-18T00:54:54.054Z,2.85
2023-04-18T00:57:55.796Z,2.78
2023-04-18T01:04:18.301Z,2.90
2023-04-18T01:07:20.226Z,2.70
2023-04-18T01:10:22.054Z,3.13
2023-04-18T01:13:23.676Z,3.15
2023-04-18T01:16:25.757Z,2.53
2023-04-18T01:19:28.865Z,2.85
2023-04-18T01:22:31.919Z,3.20
2023-04-18T01:25:34.910Z,3.13
2023-04-18T01:28:37.167Z,2.97
2023-04-18T01:31:40.302Z,2.85
2023-04-18T01:34:41.975Z,3.08
2023-04-18T01:37:43.732Z,3.20
2023-04-18T01:40:46.788Z,2.97
2023-04-18T01:43:48.480Z,2.83
2023-04-18T01:46:50.218Z,3.08
2023-04-18T01:49:52.069Z,3.65
2023-04-18T01:52:53.983Z,3.15
2023-04-18T01:55:57.049Z,3.50
2023-04-18T01:58:58.746Z,3.00
2023-04-18T02:02:00.459Z,3.00
2023-04-18T02:05:02.262Z,3.35
2023-04-18T02:08:04.324Z,2.95
2023-04-18T02:11:07.350Z,2.97
2023-04-18T02:14:09.059Z,2.90
2023-04-18T02:17:10.727Z,2.85
2023-04-18T02:20:12.476Z,3.70
2023-04-18T02:23:14.374Z,3.00
2023-04-18T02:26:17.350Z,3.38
2023-04-18T02:29:19.207Z,3.10
2023-04-18T02:32:20.889Z,3.10
2023-04-18T02:35:23.546Z,2.50
2023-04-18T02:38:25.411Z,3.20
2023-04-18T02:41:28.410Z,3.25
2023-04-18T02:44:30.074Z,3.10
2023-04-18T02:47:37.493Z,3.33
2023-04-18T02:50:45.842Z,3.47
2023-04-18T02:53:47.766Z,3.42
2023-04-18T02:56:51.845Z,3.30
2023-04-18T02:59:53.719Z,3.90
2023-04-18T03:02:55.516Z,3.75
2023-04-18T03:05:57.247Z,3.92
2023-04-18T03:08:59.024Z,4.45
2023-04-18T03:12:02.150Z,3.35
2023-04-18T03:15:04.370Z,3.55
2023-04-18T03:18:06.181Z,3.78
2023-04-18T03:21:07.862Z,3.10
2023-04-18T03:24:11.981Z,3.55
2023-04-18T03:27:15.281Z,3.45
2023-04-18T03:30:17.738Z,3.22
2023-04-18T03:33:19.415Z,3.00
2023-04-18T03:36:21.112Z,3.38
2023-04-18T03:39:22.726Z,3.42
2023-04-18T03:42:25.663Z,3.80
2023-04-18T03:45:27.402Z,3.10
2023-04-18T03:48:29.177Z,3.00
2023-04-18T03:51:33.343Z,3.00
2023-04-18T03:54:34.969Z,3.45
2023-04-18T03:57:37.959Z,3.17
2023-04-18T04:00:39.581Z,3.97
2023-04-18T04:03:41.453Z,3.50
2023-04-18T04:06:43.604Z,2.97
2023-04-18T04:09:45.423Z,3.47
2023-04-18T04:12:48.487Z,2.92
2023-04-18T04:15:50.731Z,2.80
2023-04-18T04:18:52.353Z,3.33
2023-04-18T04:21:54.150Z,3.00
2023-04-18T04:24:56.481Z,3.47
2023-04-18T04:27:59.607Z,2.97
2023-04-18T04:31:01.525Z,3.17
2023-04-18T04:34:03.465Z,3.20
2023-04-18T04:37:05.122Z,3.00
2023-04-18T04:40:07.734Z,3.20
2023-04-18T04:43:10.717Z,3.15
2023-04-18T04:46:12.498Z,3.15
2023-04-18T04:49:14.273Z,2.90
2023-04-18T04:52:16.472Z,3.20
2023-04-18T04:55:18.338Z,3.25
2023-04-18T04:58:21.420Z,4.22
2023-04-18T05:01:23.160Z,3.78
2023-04-18T05:04:24.918Z,3.53
2023-04-18T05:07:26.740Z,4.00
2023-04-18T05:10:28.402Z,4.22
2023-04-18T05:13:31.718Z,3.58
2023-04-18T05:16:33.547Z,3.05
2023-04-18T05:19:35.431Z,2.92
2023-04-18T05:22:37.347Z,2.60
2023-04-18T05:25:39.145Z,2.40
2023-04-18T05:28:42.547Z,2.38
2023-04-18T05:31:45.130Z,2.30
2023-04-18T05:34:47.072Z,2.22
2023-04-18T05:37:48.768Z,2.60
2023-04-18T05:40:50.390Z,2.97
2023-04-18T05:44:04.261Z,1.92
2023-04-18T05:47:07.338Z,2.22
2023-04-18T05:50:09.674Z,2.33
2023-04-18T05:53:11.383Z,2.40
2023-04-18T05:56:13.190Z,2.85
2023-04-18T05:59:16.850Z,2.33
2023-04-18T06:05:20.863Z,2.47
2023-04-18T06:08:22.588Z,1.52
2023-04-18T06:11:24.446Z,2.28
2023-04-18T06:14:27.570Z,1.85
2023-04-18T06:17:29.453Z,1.88
2023-04-18T06:20:31.219Z,2.17
2023-04-18T06:23:32.985Z,2.05
2023-04-18T06:26:34.997Z,1.90
2023-04-18T06:29:38.264Z,1.77
2023-04-18T06:32:39.952Z,2.38
2023-04-18T06:35:41.706Z,2.17
2023-04-18T06:38:43.456Z,1.80
2023-04-18T06:41:45.431Z,1.70
2023-04-18T06:44:48.409Z,1.75
2023-04-18T06:47:50.429Z,1.67
2023-04-18T06:50:52.429Z,2.28
2023-04-18T06:53:54.682Z,1.98
2023-04-18T06:56:56.404Z,2.20
2023-04-18T06:59:59.390Z,2.20
2023-04-18T07:03:01.259Z,1.42
2023-04-18T07:06:03.120Z,2.00
2023-04-18T07:09:04.867Z,2.58
2023-04-18T07:12:06.812Z,1.40
2023-04-18T07:15:10.733Z,1.70
2023-04-18T07:18:14.547Z,1.77
2023-04-18T07:21:19.764Z,1.70
2023-04-18T07:24:21.384Z,1.80
2023-04-18T07:27:23.037Z,1.60
2023-04-18T07:30:25.989Z,1.88
2023-04-18T07:33:27.647Z,1.80
2023-04-18T07:36:29.803Z,1.50
2023-04-18T07:39:31.591Z,1.65
2023-04-18T07:42:33.268Z,1.50
2023-04-18T07:45:36.373Z,1.38
2023-04-18T07:48:38.281Z,1.85
2023-04-18T07:51:39.920Z,1.80
2023-04-18T07:54:41.606Z,1.40
2023-04-18T07:57:43.896Z,1.40
2023-04-18T08:00:48.098Z,1.33
2023-04-18T08:03:50.217Z,2.20
2023-04-18T08:06:52.585Z,4.00
2023-04-18T08:09:54.263Z,1.60
2023-04-18T08:12:55.961Z,1.63
2023-04-18T08:15:59.613Z,1.73
2023-04-18T08:19:01.312Z,1.40
2023-04-18T08:22:08.480Z,1.90
2023-04-18T08:25:10.168Z,1.90
2023-04-18T08:28:12.498Z,1.50
2023-04-18T08:31:15.593Z,1.45
2023-04-18T08:34:17.330Z,1.65
2023-04-18T08:37:18.967Z,1.90
2023-04-18T08:40:20.880Z,1.58
2023-04-18T08:43:22.621Z,1.58
2023-04-18T08:46:26.345Z,1.90
2023-04-18T08:49:28.134Z,1.70
2023-04-18T08:52:31.996Z,1.55
2023-04-18T08:55:33.827Z,1.30
2023-04-18T08:58:35.475Z,1.35
2023-04-18T09:01:55.927Z,1.45
2023-04-18T09:04:57.587Z,2.20
2023-04-18T09:07:59.318Z,1.63
2023-04-18T09:11:25.375Z,1.40
2023-04-18T09:14:27.071Z,1.48
2023-04-18T09:17:35.184Z,1.30
2023-04-18T09:20:38.576Z,1.50
2023-04-18T09:26:41.945Z,1.60
2023-04-18T09:29:45.253Z,2.25
2023-04-18T09:32:57.895Z,1.70
2023-04-18T09:36:17.674Z,1.58
2023-04-18T09:39:27.199Z,1.58
2023-04-18T09:42:36.077Z,1.50
2023-04-18T09:45:38.545Z,1.65
2023-04-18T09:48:41.733Z,1.50
2023-04-18T09:51:44.187Z,2.15
2023-04-18T09:54:48.340Z,1.90
2023-04-18T09:57:53.111Z,2.05
2023-04-18T10:00:56.280Z,1.45
2023-04-18T10:04:02.068Z,1.83
2023-04-18T10:07:04.447Z,1.58
2023-04-18T10:10:07.367Z,1.52
2023-04-18T10:13:11.455Z,1.70
2023-04-18T10:16:13.812Z,1.48
2023-04-18T10:19:24.717Z,1.60
2023-04-18T10:22:27.580Z,1.27
2023-04-18T10:25:48.229Z,1.60
2023-04-18T10:28:51.699Z,1.55
2023-04-18T10:31:53.468Z,2.03
2023-04-18T10:34:56.668Z,1.55
2023-04-18T10:37:59.950Z,1.60
2023-04-18T10:41:23.985Z,1.60
2023-04-18T10:44:25.671Z,1.70
2023-04-18T10:47:27.665Z,1.42
2023-04-18T10:50:31.082Z,1.60
2023-04-18T10:53:33.146Z,1.40
2023-04-18T10:56:35.072Z,1.60
2023-04-18T10:59:38.906Z,1.90
2023-04-18T11:02:47.658Z,1.65
2023-04-18T11:05:50.989Z,1.60
2023-04-18T11:09:09.374Z,1.65
2023-04-18T11:12:11.534Z,1.70
2023-04-18T11:15:14.624Z,1.75
2023-04-18T11:18:16.404Z,1.48
2023-04-18T11:21:19.765Z,1.77
2023-04-18T11:27:25.182Z,1.55
2023-04-18T11:30:27.756Z,1.90
2023-04-18T11:33:29.582Z,1.70
2023-04-18T11:36:34.296Z,1.50
2023-04-18T11:39:41.273Z,1.58
2023-04-18T11:42:43.160Z,1.60
2023-04-18T11:45:51.486Z,1.50
2023-04-18T11:48:53.371Z,1.70
2023-04-18T11:51:56.737Z,1.60
2023-04-18T11:58:11.504Z,2.25
2023-04-18T12:01:17.986Z,1.75
2023-04-18T12:04:20.113Z,1.83
2023-04-18T12:07:37.314Z,1.95
2023-04-18T12:10:46.879Z,1.60
2023-04-18T12:13:48.546Z,2.03
2023-04-18T12:16:50.350Z,1.48
2023-04-18T12:19:52.076Z,2.10
2023-04-18T12:22:55.175Z,1.63
2023-04-18T12:26:00.915Z,1.58
2023-04-18T12:29:02.589Z,1.90
2023-04-18T12:32:04.698Z,2.70
2023-04-18T12:35:07.601Z,2.05
2023-04-18T12:38:10.715Z,2.00
2023-04-18T12:41:13.802Z,1.60
2023-04-18T12:44:15.709Z,1.80
2023-04-18T12:47:17.583Z,1.80
2023-04-18T12:50:20.890Z,2.35
2023-04-18T12:53:23.967Z,1.60
2023-04-18T12:56:25.817Z,1.88
2023-04-18T12:59:27.466Z,2.05
2023-04-18T13:02:29.282Z,1.92
2023-04-18T13:05:33.490Z,1.90
2023-04-18T13:08:37.355Z,1.90
2023-04-18T13:11:39.032Z,2.17
2023-04-18T13:14:41.830Z,1.63
2023-04-18T13:17:43.943Z,1.50
2023-04-18T13:20:45.730Z,1.80
2023-04-18T13:23:49.027Z,1.95
2023-04-18T13:29:52.501Z,1.55
2023-04-18T13:32:54.231Z,1.63
2023-04-18T13:35:56.072Z,1.92
2023-04-18T13:38:59.107Z,2.00
2023-04-18T13:42:01.388Z,1.63
2023-04-18T13:45:03.352Z,1.90
2023-04-18T13:48:06.447Z,1.88
2023-04-18T13:51:08.186Z,2.13
2023-04-18T13:54:11.281Z,2.20
2023-04-18T13:57:12.950Z,1.95
2023-04-18T14:00:15.464Z,1.80
2023-04-18T14:03:17.316Z,2.08
2023-04-18T14:06:19.059Z,2.20
2023-04-18T14:09:22.180Z,2.40
2023-04-18T14:12:23.893Z,2.13
2023-04-18T14:15:25.974Z,2.30
2023-04-18T14:18:27.679Z,2.53
2023-04-18T14:21:29.745Z,2.35
2023-04-18T14:24:32.867Z,2.22
2023-04-18T14:27:34.509Z,2.25
2023-04-18T14:30:36.813Z,2.30
2023-04-18T14:33:38.777Z,2.00
2023-04-18T14:36:40.468Z,2.20
2023-04-18T14:39:43.566Z,2.05
2023-04-18T14:42:45.286Z,2.28
2023-04-18T14:45:47.251Z,2.25
2023-04-18T14:48:49.320Z,1.90
2023-04-18T14:51:51.466Z,2.45
2023-04-18T14:54:54.826Z,2.00
2023-04-18T15:00:58.041Z,2.17
2023-04-18T15:03:59.804Z,2.00
2023-04-18T15:07:01.868Z,1.90
2023-04-18T15:10:06.096Z,2.05
2023-04-18T15:13:07.925Z,2.22
2023-04-18T15:16:09.616Z,2.15
2023-04-18T15:19:11.334Z,2.58
2023-04-18T15:22:13.379Z,2.03
2023-04-18T15:25:16.570Z,1.92
2023-04-18T15:28:19.271Z,2.15
2023-04-18T15:31:21.094Z,2.53
2023-04-18T15:34:22.989Z,2.30
2023-04-18T15:37:24.716Z,2.53
2023-04-18T15:40:28.169Z,2.38
2023-04-18T15:43:29.891Z,2.38
2023-04-18T15:46:31.871Z,2.17
2023-04-18T15:49:33.651Z,2.30
2023-04-18T15:52:35.631Z,2.40
2023-04-18T15:55:39.062Z,2.42
2023-04-18T15:58:40.999Z,2.10
2023-04-18T16:01:45.194Z,2.40
2023-04-18T16:04:47.855Z,2.03
2023-04-18T16:07:49.693Z,2.25
2023-04-18T16:10:53.260Z,2.78
2023-04-18T16:13:55.205Z,2.80
2023-04-18T16:16:59.203Z,2.53
2023-04-18T16:20:00.877Z,2.83
2023-04-18T16:23:02.601Z,2.50
2023-04-18T16:26:06.312Z,3.25
2023-04-18T16:29:08.296Z,2.83
2023-04-18T16:32:10.078Z,2.88
2023-04-18T16:35:12.481Z,3.88
2023-04-18T16:38:14.426Z,2.80
2023-04-18T16:41:17.805Z,2.78
2023-04-18T16:47:21.252Z,2.90
2023-04-18T16:50:23.319Z,2.70
2023-04-18T16:53:26.070Z,3.03
2023-04-18T16:56:29.310Z,2.80
2023-04-18T16:59:31.724Z,2.63
2023-04-18T17:02:33.916Z,2.65
2023-04-18T17:05:35.916Z,3.03
2023-04-18T17:08:37.596Z,3.17
2023-04-18T17:11:41.055Z,3.88
2023-04-18T17:14:44.018Z,6.75
2023-04-18T17:17:45.819Z,6.45
2023-04-18T17:20:47.982Z,4.85
2023-04-18T17:23:50.162Z,3.08
2023-04-18T17:26:53.297Z,3.10
2023-04-18T17:29:55.020Z,2.85
2023-04-18T17:32:57.727Z,3.38
2023-04-18T17:36:00.808Z,3.15
2023-04-18T17:39:03.092Z,2.70
2023-04-18T17:42:07.146Z,3.78
2023-04-18T17:45:10.145Z,2.92
2023-04-18T17:48:12.307Z,2.90
2023-04-18T17:51:15.246Z,3.80
2023-04-18T17:54:17.730Z,4.75
2023-04-18T17:57:24.483Z,4.05
2023-04-18T18:00:26.856Z,4.75
2023-04-18T18:03:31.972Z,4.88
2023-04-18T18:06:34.177Z,5.25
2023-04-18T18:09:37.709Z,5.28
2023-04-18T18:12:42.476Z,6.22
2023-04-18T18:15:45.468Z,6.28
2023-04-18T18:18:50.747Z,8.73
2023-04-18T18:21:59.331Z,10.85
2023-04-18T18:25:03.232Z,7.07
2023-04-18T18:28:12.896Z,5.43
2023-04-18T18:31:17.676Z,4.18
2023-04-18T18:34:20.010Z,3.78
2023-04-18T18:37:41.923Z,2.90
2023-04-18T18:40:53.639Z,3.05
2023-04-18T18:43:57.236Z,2.70
2023-04-18T18:47:28.692Z,3.20
2023-04-18T18:50:42.153Z,2.83
2023-04-18T18:53:59.872Z,3.42
2023-04-18T18:57:04.195Z,3.15
2023-04-18T19:00:09.769Z,3.17
2023-04-18T19:03:13.762Z,3.42
2023-04-18T19:06:24.312Z,3.05
2023-04-18T19:09:44.598Z,2.75
2023-04-18T19:12:52.886Z,3.10
2023-04-18T19:15:59.048Z,3.00
2023-04-18T19:19:02.145Z,3.10
2023-04-18T19:22:04.787Z,3.50
2023-04-18T19:25:28.499Z,3.75
2023-04-18T19:28:34.388Z,2.67
2023-04-18T19:31:40.746Z,2.55
2023-04-18T19:34:43.471Z,2.80
2023-04-18T19:37:45.228Z,2.42
2023-04-18T19:40:47.004Z,2.53
2023-04-18T19:43:49.138Z,2.30
2023-04-18T19:46:54.698Z,2.40
2023-04-18T19:49:57.326Z,2.30
2023-04-18T19:52:59.664Z,2.22
2023-04-18T19:56:18.793Z,1.85
2023-04-18T19:59:30.979Z,2.30
2023-04-18T20:02:35.528Z,2.40
2023-04-18T20:05:37.754Z,2.80
2023-04-18T20:08:42.380Z,1.92
2023-04-18T20:11:55.362Z,2.40
2023-04-18T20:14:58.247Z,2.28
2023-04-18T20:18:02.386Z,2.45
2023-04-18T20:21:08.512Z,2.50
2023-04-18T20:24:12.280Z,2.47
2023-04-18T20:27:14.753Z,2.78
2023-04-18T20:30:16.840Z,2.28
2023-04-18T20:33:20.520Z,2.72
2023-04-18T20:36:23.547Z,2.47
2023-04-18T20:39:38.275Z,2.78
2023-04-18T20:42:41.157Z,2.25
2023-04-18T20:45:43.639Z,2.90
2023-04-18T20:48:47.466Z,2.63
2023-04-18T20:51:49.280Z,2.22
2023-04-18T20:54:51.378Z,2.63
2023-04-18T20:57:53.581Z,2.45
2023-04-18T21:00:55.334Z,2.55
2023-04-18T21:03:58.598Z,2.67
2023-04-18T21:07:00.700Z,3.30
2023-04-18T21:10:02.974Z,2.45
2023-04-18T21:13:04.656Z,2.55
2023-04-18T21:16:07.074Z,2.78
2023-04-18T21:19:10.642Z,2.40
2023-04-18T21:25:14.709Z,2.35
2023-04-18T21:28:18.706Z,2.70
2023-04-18T21:31:20.432Z,2.85
2023-04-18T21:34:23.510Z,2.50
2023-04-18T21:37:25.321Z,3.05
2023-04-18T21:40:27.273Z,2.92
2023-04-18T21:43:29.083Z,3.38
2023-04-18T21:46:31.074Z,2.78
2023-04-18T21:49:34.190Z,2.83
2023-04-18T21:52:35.898Z,2.55
2023-04-18T21:55:37.554Z,3.03
2023-04-18T21:58:39.319Z,2.85
2023-04-18T22:01:41.200Z,2.83
2023-04-18T22:04:44.283Z,3.13
2023-04-18T22:07:54.983Z,2.65
2023-04-18T22:11:00.326Z,2.83
2023-04-18T22:14:01.998Z,2.72
2023-04-18T22:17:03.804Z,2.70
2023-04-18T22:20:08.445Z,3.03
2023-04-18T22:23:10.864Z,3.00
2023-04-18T22:26:13.123Z,2.40
2023-04-18T22:29:15.058Z,2.67
2023-04-18T22:32:16.709Z,2.53
2023-04-18T22:35:20.099Z,2.55
2023-04-18T22:38:22.058Z,2.97
2023-04-18T22:41:23.986Z,3.00
2023-04-18T22:44:25.952Z,2.78
2023-04-18T22:47:27.928Z,3.13
2023-04-18T22:50:30.930Z,3.22
2023-04-18T22:53:32.846Z,3.03
2023-04-18T22:56:34.834Z,3.10
2023-04-18T22:59:36.560Z,2.47
2023-04-18T23:02:38.685Z,3.20
2023-04-18T23:05:41.960Z,2.75
2023-04-18T23:08:43.647Z,3.00
2023-04-18T23:11:45.553Z,2.80
2023-04-18T23:14:48.080Z,3.20
2023-04-18T23:17:51.951Z,2.67
2023-04-18T23:20:55.136Z,3.22
2023-04-18T23:23:56.829Z,3.00
2023-04-18T23:26:58.608Z,2.90
2023-04-18T23:30:00.498Z,2.90
2023-04-18T23:33:02.516Z,3.08
2023-04-18T23:36:06.231Z,3.25
2023-04-18T23:39:08.136Z,3.50
2023-04-18T23:42:12.431Z,2.80
2023-04-18T23:45:14.579Z,2.90
2023-04-18T23:48:16.522Z,3.13
2023-04-18T23:51:19.634Z,2.92
2023-04-18T23:54:21.252Z,3.40
2023-04-18T23:57:22.978Z,2.90
